Terminal Aerodrome Forecast
Issued by NWS

Home | Current Version | Previous Version | Text Only | Print | Product List | Glossary On
Versions: 1 2 3 4 5 6 7 8 9 10 11 12 13 14 15 16 17 18 19
040
FTUS42 KKEY 232105 AAA
TAFMTH
TAF AMD
KMTH 232105Z 2321/2418 31007KT P6SM SCT019 BKN045
      TEMPO 2321/2323 -RA BKN015
     FM241500 29010KT P6SM FEW019 SCT045=

USA.gov is the U.S. government's official web portal to all federal, state and local government web resources and services.